Time;durP1;ratioP1;P1;durP2;ratioP2;P2;SDS_P1;SDS_P2;PMS_P1;PMS_P2;Temp;Humidity;BMP_temperature;BMP_pressure;BME280_temperature;BME280_humidity;BME280_pressure;Samples;Min_cycle;Max_cycle;Signal;HPM_P1;HPM_P2
2022/07/04 00:00:18;;;;;;;3.55;2.30;;;;;;;18.50;59.46;100363.13;5100343;28;20139;-59
2022/07/04 00:03:02;;;;;;;4.63;2.10;;;;;;;18.50;59.34;100376.25;5116015;28;20039;-58
2022/07/04 00:05:47;;;;;;;4.22;2.05;;;;;;;18.49;59.40;100378.91;5115655;28;20055;-57
2022/07/04 00:08:30;;;;;;;3.08;2.25;;;;;;;18.47;59.42;100383.31;5100427;28;20080;-58
2022/07/04 00:11:14;;;;;;;4.13;1.75;;;;;;;18.45;59.31;100377.22;5100921;28;20046;-58
2022/07/04 00:13:58;;;;;;;3.53;2.13;;;;;;;18.44;59.34;100376.34;5116157;28;20100;-58
2022/07/04 00:16:42;;;;;;;3.70;2.33;;;;;;;18.44;59.14;100380.72;5115315;28;20101;-58
2022/07/04 00:19:26;;;;;;;3.10;2.25;;;;;;;18.43;59.41;100369.38;5115932;28;20046;-59
2022/07/04 00:22:10;;;;;;;3.00;1.98;;;;;;;18.42;59.19;100370.25;5115201;28;20103;-58
2022/07/04 00:24:54;;;;;;;3.67;1.95;;;;;;;18.42;59.32;100370.25;5115403;28;20051;-58
2022/07/04 00:27:38;;;;;;;6.78;2.22;;;;;;;18.40;59.27;100367.63;5115517;28;20067;-58
2022/07/04 00:30:22;;;;;;;4.18;1.88;;;;;;;18.41;59.39;100363.25;5114827;28;20066;-57
2022/07/04 00:33:10;;;;;;;3.67;2.03;;;;;;;18.41;59.56;100358.88;5115365;28;20571;-57
2022/07/04 00:35:57;;;;;;;4.75;2.10;;;;;;;18.41;59.50;100352.75;5100305;28;20429;-57
2022/07/04 00:38:41;;;;;;;3.85;2.10;;;;;;;18.40;59.81;100349.25;5115354;28;20596;-57
2022/07/04 00:41:27;;;;;;;2.88;2.05;;;;;;;18.40;59.52;100357.13;5115163;28;20131;-57
2022/07/04 00:44:13;;;;;;;4.45;1.98;;;;;;;18.39;59.63;100352.75;5115435;28;20041;-57
2022/07/04 00:46:57;;;;;;;4.47;2.40;;;;;;;18.37;59.56;100362.41;5099596;28;20124;-57
2022/07/04 00:49:41;;;;;;;3.72;2.45;;;;;;;18.35;59.56;100353.72;5115308;28;20570;-59
2022/07/04 00:52:25;;;;;;;3.47;2.10;;;;;;;18.35;59.23;100358.06;5115429;28;20070;-59
2022/07/04 00:55:10;;;;;;;3.97;2.33;;;;;;;18.34;59.51;100354.59;5114775;28;20054;-57
2022/07/04 00:57:57;;;;;;;3.78;2.25;;;;;;;18.33;59.54;100355.47;5099867;28;20104;-58
2022/07/04 01:00:41;;;;;;;7.13;2.70;;;;;;;18.33;59.40;100349.34;5099450;28;20050;-58
2022/07/04 01:03:25;;;;;;;4.35;1.98;;;;;;;18.33;59.67;100349.34;5114342;28;20050;-58
2022/07/04 01:06:09;;;;;;;4.28;2.45;;;;;;;18.33;59.46;100359.84;5098967;28;20136;-58
2022/07/04 01:11:23;;;;;;;3.75;2.45;;;;;;;18.33;59.57;100351.97;5111492;27;20194;-57
2022/07/04 01:14:07;;;;;;;4.07;2.15;;;;;;;18.31;59.62;100352.00;5111343;28;20579;-57
2022/07/04 01:16:51;;;;;;;4.95;2.03;;;;;;;18.32;59.79;100355.47;5111265;28;20071;-57
2022/07/04 01:19:35;;;;;;;3.13;2.00;;;;;;;18.31;59.52;100343.25;5110892;28;20123;-57
2022/07/04 01:22:21;;;;;;;4.50;1.85;;;;;;;18.30;59.80;100349.38;5110486;28;20091;-57
2022/07/04 01:25:05;;;;;;;2.95;2.20;;;;;;;18.29;59.56;100351.13;5110248;28;20051;-59
2022/07/04 01:27:49;;;;;;;4.95;2.25;;;;;;;18.29;59.63;100352.91;5111165;28;20097;-59
2022/07/04 01:30:34;;;;;;;5.13;2.42;;;;;;;18.27;59.68;100355.53;5109620;28;20560;-57
2022/07/04 01:33:19;;;;;;;4.60;2.47;;;;;;;18.25;59.53;100355.56;5110078;28;20418;-57
2022/07/04 01:36:03;;;;;;;3.35;2.20;;;;;;;18.25;59.50;100355.56;5111292;28;20047;-57
2022/07/04 01:38:47;;;;;;;4.10;2.05;;;;;;;18.22;59.34;100339.84;5110915;28;20047;-59
2022/07/04 01:41:35;;;;;;;5.32;2.58;;;;;;;18.22;59.53;100342.47;5110744;28;20047;-59
2022/07/04 01:44:18;;;;;;;3.08;2.40;;;;;;;18.22;59.75;100346.81;5111020;28;20073;-57
2022/07/04 01:47:02;;;;;;;3.83;1.65;;;;;;;18.21;59.62;100351.22;5110798;28;20097;-59
2022/07/04 01:49:47;;;;;;;4.65;2.55;;;;;;;18.22;59.47;100355.59;5110349;28;20571;-59
2022/07/04 01:52:31;;;;;;;2.88;2.08;;;;;;;18.21;59.82;100351.22;5110719;28;20425;-58
2022/07/04 01:55:16;;;;;;;4.25;2.50;;;;;;;18.20;59.75;100353.88;5109444;28;20407;-57
2022/07/04 01:58:00;;;;;;;7.15;2.22;;;;;;;18.20;59.68;100354.72;5110766;28;20426;-58
2022/07/04 02:03:47;;;;;;;4.10;1.98;;;;;;;18.16;59.77;100360.88;5110421;28;20051;-58
2022/07/04 02:06:32;;;;;;;4.90;2.15;;;;;;;18.16;59.74;100358.25;5109544;28;20101;-58
2022/07/04 02:09:16;;;;;;;5.28;2.45;;;;;;;18.14;59.61;100352.16;5109300;28;20551;-58
2022/07/04 02:15:03;;;;;;;5.03;2.65;;;;;;;18.14;59.72;100359.16;5110395;28;20478;-57
2022/07/04 02:17:47;;;;;;;2.35;2.08;;;;;;;18.13;59.88;100365.28;5110026;28;20043;-56
2022/07/04 02:20:32;;;;;;;3.25;2.35;;;;;;;18.11;59.75;100360.94;5109912;28;20081;-57
2022/07/04 02:23:16;;;;;;;3.10;1.98;;;;;;;18.09;59.54;100357.47;5095683;28;20078;-57
2022/07/04 02:26:00;;;;;;;5.43;2.28;;;;;;;18.07;59.70;100367.09;5096746;28;20554;-58
2022/07/04 02:28:44;;;;;;;2.85;2.08;;;;;;;18.07;59.99;100366.22;5096753;28;20513;-57
2022/07/04 02:31:28;;;;;;;9.52;2.15;;;;;;;18.05;59.72;100371.50;5096363;28;20043;-57
2022/07/04 02:34:12;;;;;;;2.33;1.75;;;;;;;18.05;59.69;100375.88;5095639;28;20067;-57
2022/07/04 02:36:56;;;;;;;4.93;2.97;;;;;;;18.05;59.79;100381.09;5096159;28;20067;-57
2022/07/04 02:39:39;;;;;;;3.92;2.30;;;;;;;18.04;59.61;100380.25;5095694;28;20561;-58
2022/07/04 02:42:23;;;;;;;6.25;2.50;;;;;;;18.04;59.79;100382.00;5096285;28;20055;-58
2022/07/04 02:45:08;;;;;;;3.05;1.90;;;;;;;18.04;59.82;100382.00;5096048;28;20057;-58
2022/07/04 02:47:52;;;;;;;4.10;2.15;;;;;;;18.03;59.90;100385.50;5095795;28;20541;-59
2022/07/04 02:50:36;;;;;;;4.38;1.83;;;;;;;18.01;59.85;100382.91;5095816;28;20101;-58
2022/07/04 02:53:22;;;;;;;3.78;2.40;;;;;;;18.01;59.94;100387.25;5096148;28;20118;-58
2022/07/04 02:56:06;;;;;;;7.60;2.45;;;;;;;18.00;59.99;100383.78;5095850;28;20051;-59
2022/07/04 02:58:51;;;;;;;3.17;1.92;;;;;;;18.01;59.68;100387.25;5094702;28;20079;-58
2022/07/04 03:01:35;;;;;;;3.65;2.08;;;;;;;18.01;59.89;100388.16;5095983;28;20083;-58
2022/07/04 03:04:19;;;;;;;5.38;2.60;;;;;;;18.01;59.63;100387.25;5095048;28;20043;-58
2022/07/04 03:07:07;;;;;;;2.97;2.30;;;;;;;18.01;60.00;100398.63;5095563;28;20066;-58
2022/07/04 03:09:51;;;;;;;4.68;2.03;;;;;;;18.02;59.99;100399.50;5095481;28;20074;-58
2022/07/04 03:12:35;;;;;;;3.47;2.10;;;;;;;18.01;59.98;100400.38;5095585;28;20051;-58
2022/07/04 03:15:19;;;;;;;3.83;2.05;;;;;;;17.99;59.91;100400.41;5095361;28;20069;-58
2022/07/04 03:18:03;;;;;;;3.28;2.10;;;;;;;18.00;60.08;100398.63;5095202;28;20051;-58
2022/07/04 03:20:47;;;;;;;3.95;1.65;;;;;;;17.99;59.86;100399.50;5095744;28;20130;-58
2022/07/04 03:23:31;;;;;;;4.32;2.25;;;;;;;17.98;59.93;100405.66;5093861;28;20051;-58
2022/07/04 03:26:15;;;;;;;8.18;2.47;;;;;;;17.96;59.90;100403.91;5094212;28;20059;-58
2022/07/04 03:29:01;;;;;;;2.28;1.80;;;;;;;17.96;59.88;100409.13;5093907;28;20105;-57
2022/07/04 03:31:44;;;;;;;;;;;;;;;17.94;59.83;100399.53;5094141;28;20197;-57
2022/07/04 03:34:28;;;;;;;5.10;2.22;;;;;;;17.93;59.71;100406.53;5094336;28;20000;-57
2022/07/04 03:37:12;;;;;;;4.50;2.05;;;;;;;17.92;59.91;100404.78;5095298;28;20411;-59
2022/07/04 03:40:01;;;;;;;6.05;2.53;;;;;;;17.91;59.85;100408.28;5094896;28;20047;-57
2022/07/04 03:42:46;;;;;;;7.13;2.65;;;;;;;17.90;60.15;100411.81;5094280;28;20146;-57
2022/07/04 03:45:30;;;;;;;7.30;2.92;;;;;;;17.89;60.04;100411.81;5094785;28;20518;-57
2022/07/04 03:48:14;;;;;;;5.72;2.80;;;;;;;17.87;59.97;100403.94;5094246;28;20563;-57
2022/07/04 03:50:58;;;;;;;5.35;2.47;;;;;;;17.88;59.93;100416.19;5094245;28;20560;-58
2022/07/04 03:53:42;;;;;;;4.90;2.20;;;;;;;17.84;60.06;100401.34;5094706;28;20085;-58
2022/07/04 03:56:26;;;;;;;4.55;2.35;;;;;;;17.85;60.09;100395.22;5093487;28;20046;-59
2022/07/04 03:59:10;;;;;;;6.45;2.47;;;;;;;17.84;59.78;100403.13;5094422;28;20101;-57
2022/07/04 04:01:54;;;;;;;5.97;2.20;;;;;;;17.85;60.14;100407.47;5094303;28;20051;-57
2022/07/04 04:07:44;;;;;;;7.70;2.78;;;;;;;17.81;60.05;100417.97;5094316;28;20046;-57
2022/07/04 04:10:33;;;;;;;7.18;3.28;;;;;;;17.81;59.98;100414.50;5093269;28;20560;-57
2022/07/04 04:13:17;;;;;;;7.50;2.92;;;;;;;17.81;60.14;100415.38;5093302;28;20089;-57
2022/07/04 04:16:01;;;;;;;10.48;3.30;;;;;;;17.79;60.06;100419.75;5094340;28;20050;-56
2022/07/04 04:18:45;;;;;;;5.15;3.17;;;;;;;17.80;60.03;100420.63;5093824;28;20047;-57
2022/07/04 04:21:31;;;;;;;9.52;3.13;;;;;;;17.79;60.09;100421.50;5094200;28;20075;-57
2022/07/04 04:24:15;;;;;;;6.78;3.28;;;;;;;17.78;60.07;100418.00;5093678;28;20082;-57
2022/07/04 04:26:59;;;;;;;13.05;3.65;;;;;;;17.77;60.12;100418.88;5094335;28;20410;-57
2022/07/04 04:29:43;;;;;;;7.90;3.78;;;;;;;17.76;60.12;100421.53;5094396;28;20446;-59
2022/07/04 04:32:27;;;;;;;10.88;3.28;;;;;;;17.76;60.24;100432.00;5093358;28;20109;-58
2022/07/04 04:37:25;;;;;;;10.52;4.18;;;;;;;17.71;60.09;100424.19;5173468;27;20246;-59
2022/07/04 04:40:10;;;;;;;7.10;3.58;;;;;;;17.71;60.42;100429.44;5157645;27;20454;-57
2022/07/04 04:42:53;;;;;;;12.13;3.63;;;;;;;17.72;60.34;100433.78;5157870;27;20041;-57
2022/07/04 04:45:37;;;;;;;8.43;3.17;;;;;;;17.73;60.14;100437.28;5157894;27;20050;-57
2022/07/04 04:48:21;;;;;;;8.60;2.97;;;;;;;17.74;60.46;100439.00;5172819;27;20137;-58
2022/07/04 04:51:05;;;;;;;8.73;3.33;;;;;;;17.72;60.28;100446.91;5173052;27;20049;-57
2022/07/04 04:53:49;;;;;;;4.38;2.85;;;;;;;17.71;60.27;100445.16;5173128;27;20114;-58
2022/07/04 04:56:36;;;;;;;8.65;3.20;;;;;;;17.69;60.42;100444.28;5172815;27;20064;-57
2022/07/04 04:59:20;;;;;;;8.02;3.50;;;;;;;17.69;60.39;100446.03;5173326;27;20067;-59
2022/07/04 05:02:06;;;;;;;8.18;3.58;;;;;;;17.68;60.33;100460.91;5172559;27;20045;-57
2022/07/04 05:04:50;;;;;;;7.35;3.22;;;;;;;17.67;60.37;100461.78;5172791;27;20100;-57
2022/07/04 05:07:34;;;;;;;7.90;3.40;;;;;;;17.67;60.47;100453.06;5173175;27;20602;-57
2022/07/04 05:10:18;;;;;;;8.70;3.50;;;;;;;17.67;60.44;100453.91;5172596;27;20061;-59
2022/07/04 05:13:03;;;;;;;6.63;2.95;;;;;;;17.65;60.34;100453.06;5172941;27;20122;-57
2022/07/04 05:15:47;;;;;;;11.82;3.88;;;;;;;17.63;60.28;100447.84;5172825;27;20095;-59
2022/07/04 05:18:31;;;;;;;9.98;3.72;;;;;;;17.62;60.29;100450.44;5172563;27;20478;-57
2022/07/04 05:21:16;;;;;;;10.15;3.50;;;;;;;17.60;60.51;100442.59;5172678;27;20519;-58
2022/07/04 05:24:00;;;;;;;9.25;4.10;;;;;;;17.58;60.58;100446.97;5172928;27;20545;-59
2022/07/04 05:26:46;;;;;;;6.35;3.42;;;;;;;17.54;60.49;100445.25;5156966;27;20127;-59
2022/07/04 05:29:31;;;;;;;11.27;4.05;;;;;;;17.54;60.65;100445.25;5172405;27;20053;-59
2022/07/04 05:32:15;;;;;;;14.00;4.63;;;;;;;17.54;60.59;100441.78;5172040;27;20073;-58
2022/07/04 05:34:59;;;;;;;13.82;4.45;;;;;;;17.49;60.71;100431.34;5171647;27;20103;-58
2022/07/04 05:37:43;;;;;;;11.10;4.32;;;;;;;17.46;60.78;100436.59;5156423;27;20091;-57
2022/07/04 05:40:27;;;;;;;10.00;4.68;;;;;;;17.45;60.72;100432.22;5172294;27;20053;-59
2022/07/04 05:43:12;;;;;;;11.00;5.68;;;;;;;17.44;60.78;100428.72;5156304;27;20527;-59
2022/07/04 05:45:56;;;;;;;12.70;4.90;;;;;;;17.41;60.72;100436.63;5171914;27;20557;-59
2022/07/04 05:48:39;;;;;;;16.40;4.28;;;;;;;17.41;60.98;100436.63;5158407;27;20057;-59
2022/07/04 05:51:23;;;;;;;12.25;4.60;;;;;;;17.42;61.00;100425.25;5142113;27;20106;-56
2022/07/04 05:54:08;;;;;;;15.73;4.53;;;;;;;17.43;61.04;100432.25;5158097;27;20091;-57
2022/07/04 05:56:52;;;;;;;13.48;5.03;;;;;;;17.43;61.15;100424.38;5157696;27;20504;-57
2022/07/04 05:59:36;;;;;;;13.77;4.18;;;;;;;17.44;60.98;100431.34;5157721;27;20131;-57
2022/07/04 06:02:20;;;;;;;12.38;4.47;;;;;;;17.43;61.01;100416.53;5158176;27;20095;-57
2022/07/04 06:05:05;;;;;;;12.20;4.00;;;;;;;17.43;60.88;100418.25;5158027;27;20049;-57
2022/07/04 06:07:50;;;;;;;12.02;4.85;;;;;;;17.44;60.96;100422.63;5157846;27;20057;-57
2022/07/04 06:10:56;;;;;;;9.18;3.85;;;;;;;17.43;61.02;100429.63;5132262;27;20256;-59
2022/07/04 06:13:40;;;;;;;10.95;4.88;;;;;;;17.42;60.80;100433.13;5131745;28;20050;-58
2022/07/04 06:16:24;;;;;;;7.97;3.80;;;;;;;17.41;61.10;100430.50;5132139;27;20616;-58
2022/07/04 06:19:08;;;;;;;7.05;4.28;;;;;;;17.39;61.10;100425.28;5130539;28;20148;-59
2022/07/04 06:21:52;;;;;;;13.38;4.35;;;;;;;17.40;61.08;100426.13;5132058;27;20122;-58
2022/07/04 06:24:40;;;;;;;17.15;5.07;;;;;;;17.39;61.07;100429.63;5132102;28;20051;-58
2022/07/04 06:27:24;;;;;;;14.88;3.95;;;;;;;17.39;61.13;100422.66;5130359;28;20085;-59
2022/07/04 06:30:09;;;;;;;;;;;;;;;17.37;61.11;100424.41;5131435;28;20051;-58
2022/07/04 06:32:55;;;;;;;7.50;3.53;;;;;;;17.38;61.31;100426.16;5131768;28;19976;-58
2022/07/04 06:35:45;;;;;;;7.72;3.42;;;;;;;17.39;61.26;100422.66;5130212;28;20179;-58
2022/07/04 06:38:32;;;;;;;12.00;3.97;;;;;;;17.40;61.26;100424.41;5131348;27;20049;-58
2022/07/04 06:41:16;;;;;;;10.52;3.75;;;;;;;17.41;61.28;100431.38;5130327;28;20422;-58
2022/07/04 06:44:00;;;;;;;6.18;3.78;;;;;;;17.41;61.25;100430.50;5131068;28;20123;-58
2022/07/04 06:46:45;;;;;;;6.75;3.60;;;;;;;17.42;61.14;100432.25;5130918;28;20501;-58
2022/07/04 06:49:29;;;;;;;10.20;3.72;;;;;;;17.40;61.17;100434.88;5130890;28;20123;-58
2022/07/04 06:52:13;;;;;;;6.82;3.15;;;;;;;17.40;61.19;100429.63;5131433;28;20168;-58
2022/07/04 06:54:57;;;;;;;10.10;3.88;;;;;;;17.41;61.36;100430.50;5131079;28;20058;-58
2022/07/04 06:57:41;;;;;;;10.00;3.45;;;;;;;17.40;61.20;100431.38;5130707;28;20051;-58
2022/07/04 07:00:26;;;;;;;6.18;3.05;;;;;;;17.42;61.18;100427.00;5130783;27;20084;-58
2022/07/04 07:03:10;;;;;;;9.77;3.67;;;;;;;17.42;61.36;100427.00;5130704;28;20053;-58
2022/07/04 07:05:56;;;;;;;5.53;2.60;;;;;;;17.42;61.17;100424.38;5130123;28;20046;-59
2022/07/04 07:08:40;;;;;;;7.15;2.97;;;;;;;17.44;61.26;100431.34;5129710;27;20053;-58
2022/07/04 07:11:24;;;;;;;8.88;3.72;;;;;;;17.44;61.01;100431.34;5131072;28;20564;-59
2022/07/04 07:14:07;;;;;;;5.95;3.33;;;;;;;17.46;61.13;100431.34;5130643;28;20078;-58
2022/07/04 07:16:51;;;;;;;11.98;3.00;;;;;;;17.47;61.27;100439.19;5130914;28;20055;-58
2022/07/04 07:19:35;;;;;;;10.45;3.00;;;;;;;17.46;61.28;100440.06;5129407;28;20050;-59
2022/07/04 07:22:20;;;;;;;8.93;3.40;;;;;;;17.46;61.13;100440.06;5115853;28;20050;-58
2022/07/04 07:25:04;;;;;;;8.10;3.45;;;;;;;17.48;61.14;100434.84;5116933;28;20137;-58
2022/07/04 07:27:48;;;;;;;;;;;;;;;17.47;61.09;100435.72;5117194;28;20402;-58
2022/07/04 07:30:32;;;;;;;6.15;2.92;;;;;;;17.48;61.18;100434.84;5116337;28;19921;-58
2022/07/04 07:33:16;;;;;;;6.50;2.58;;;;;;;17.48;61.16;100432.22;5116723;28;20043;-57
2022/07/04 07:36:00;;;;;;;8.15;3.28;;;;;;;17.49;61.35;100441.81;5116845;28;20474;-57
2022/07/04 07:38:44;;;;;;;9.88;2.92;;;;;;;17.49;61.18;100445.28;5116639;28;20058;-57
2022/07/04 07:41:28;;;;;;;11.55;3.50;;;;;;;17.48;61.20;100440.94;5116684;28;20058;-58
2022/07/04 07:44:11;;;;;;;8.73;3.47;;;;;;;17.49;61.35;100447.91;5116714;28;20054;-57
2022/07/04 07:46:56;;;;;;;3.67;2.50;;;;;;;17.51;61.11;100445.31;5116184;28;20078;-57
2022/07/04 07:49:40;;;;;;;10.40;2.92;;;;;;;17.53;61.34;100453.13;5116344;28;20522;-57
2022/07/04 07:52:24;;;;;;;6.10;2.78;;;;;;;17.51;61.22;100445.31;5115960;28;20572;-57
2022/07/04 07:55:08;;;;;;;8.02;2.90;;;;;;;17.53;61.27;100450.50;5115569;28;20054;-58
2022/07/04 07:57:52;;;;;;;9.38;3.03;;;;;;;17.53;61.33;100451.38;5115826;28;20086;-57
2022/07/04 08:00:37;;;;;;;8.48;2.92;;;;;;;17.53;61.09;100446.13;5115021;28;20077;-57
2022/07/04 08:06:26;;;;;;;6.15;2.85;;;;;;;17.53;61.37;100440.91;5116047;28;20038;-59
2022/07/04 08:09:10;;;;;;;10.20;2.83;;;;;;;17.55;61.08;100443.53;5115872;28;20063;-58
2022/07/04 08:11:54;;;;;;;;;;;;;;;17.55;61.21;100443.53;5116329;28;20462;-59
2022/07/04 08:14:38;;;;;;;7.05;2.30;;;;;;;17.55;61.34;100440.91;5115696;28;19958;-59
2022/07/04 08:17:22;;;;;;;6.88;3.03;;;;;;;17.57;61.26;100442.63;5115143;28;20402;-58
2022/07/04 08:20:07;;;;;;;3.58;2.10;;;;;;;17.58;61.23;100446.97;5115179;28;20393;-58
2022/07/04 08:22:51;;;;;;;6.40;2.72;;;;;;;17.59;61.43;100448.72;5114689;28;20414;-58
2022/07/04 08:25:35;;;;;;;5.60;1.85;;;;;;;17.59;61.15;100440.88;5115766;28;20406;-58
2022/07/04 08:28:19;;;;;;;7.43;2.55;;;;;;;17.59;61.21;100438.25;5115515;28;20047;-58
2022/07/04 08:31:04;;;;;;;5.90;2.53;;;;;;;17.60;61.38;100444.34;5115686;28;20402;-57
2022/07/04 08:33:48;;;;;;;4.85;2.60;;;;;;;17.60;61.52;100442.59;5114257;28;20115;-57
2022/07/04 08:36:32;;;;;;;4.78;2.13;;;;;;;17.60;61.27;100439.09;5115702;28;20142;-57
2022/07/04 08:39:18;;;;;;;7.28;2.75;;;;;;;17.61;61.58;100439.09;5115204;28;20104;-57
2022/07/04 08:42:06;;;;;;;6.65;1.98;;;;;;;17.61;61.29;100433.88;5114875;28;20069;-57
2022/07/04 08:44:52;;;;;;;3.28;1.85;;;;;;;17.62;61.36;100439.97;5114550;28;20047;-58
2022/07/04 08:47:39;;;;;;;5.97;2.42;;;;;;;17.64;61.26;100438.22;5113990;28;20513;-57
2022/07/04 08:50:30;;;;;;;4.32;2.00;;;;;;;17.65;61.38;100438.22;5114417;28;20559;-57
2022/07/04 08:53:22;;;;;;;4.45;1.90;;;;;;;17.67;61.53;100440.81;5115462;28;20130;-57
2022/07/04 08:59:14;;;;;;;7.13;2.20;;;;;;;17.70;61.41;100437.28;5115332;28;20056;-57
2022/07/04 09:01:58;;;;;;;4.55;1.85;;;;;;;17.72;61.40;100435.53;5114283;28;20132;-60
2022/07/04 09:04:43;;;;;;;8.05;2.30;;;;;;;17.74;61.25;100441.63;5115233;28;20488;-57
2022/07/04 09:07:28;;;;;;;4.28;1.98;;;;;;;17.75;61.08;100435.50;5113885;28;20054;-58
2022/07/04 09:10:13;;;;;;;3.20;1.90;;;;;;;17.75;61.31;100433.75;5114298;28;20525;-57
2022/07/04 09:13:02;;;;;;;8.70;1.88;;;;;;;17.75;61.40;100433.75;5114858;28;20410;-58
2022/07/04 09:15:49;;;;;;;3.45;2.15;;;;;;;17.77;61.09;100432.00;5114176;28;20053;-57
2022/07/04 09:18:35;;;;;;;5.45;1.90;;;;;;;17.78;61.16;100419.78;5113700;28;20038;-57
2022/07/04 09:21:41;;;;;;;5.47;2.00;;;;;;;17.80;61.42;100423.25;5113545;28;20525;-57
2022/07/04 09:24:49;;;;;;;3.35;1.92;;;;;;;17.79;61.21;100417.13;5114273;28;20068;-57
2022/07/04 09:27:39;;;;;;;3.75;2.05;;;;;;;17.81;61.24;100420.59;5113974;28;20129;-57
2022/07/04 09:30:27;;;;;;;2.78;1.80;;;;;;;17.84;61.28;100414.47;5113466;28;20571;-57
2022/07/04 09:33:12;;;;;;;3.30;1.35;;;;;;;17.86;61.40;100414.47;5113312;28;20074;-57
2022/07/04 09:35:56;;;;;;;4.20;2.35;;;;;;;17.87;61.33;100413.59;5114161;28;20050;-57
2022/07/04 09:38:40;;;;;;;3.08;1.67;;;;;;;17.89;61.08;100420.53;5113845;28;20055;-57
2022/07/04 09:41:34;;;;;;;3.45;1.52;;;;;;;17.90;61.26;100422.28;5113286;28;20104;-58
2022/07/04 09:44:19;;;;;;;4.78;1.95;;;;;;;17.92;61.37;100423.16;5113859;28;20127;-57
2022/07/04 09:47:22;;;;;;;3.65;1.92;;;;;;;17.94;61.01;100420.50;5113973;28;20077;-58
2022/07/04 09:50:13;;;;;;;4.70;1.50;;;;;;;17.94;60.98;100421.38;5114141;28;20065;-58
2022/07/04 09:52:57;;;;;;;2.50;1.42;;;;;;;17.95;61.05;100423.13;5113610;28;20101;-57
2022/07/04 09:55:41;;;;;;;3.00;1.73;;;;;;;17.95;61.11;100422.25;5114117;28;20047;-57
2022/07/04 09:58:25;;;;;;;4.13;1.95;;;;;;;17.97;60.86;100425.72;5114351;28;20051;-59
2022/07/04 10:01:09;;;;;;;5.03;1.73;;;;;;;17.98;61.02;100424.03;5113777;28;20047;-58
2022/07/04 10:03:53;;;;;;;3.15;1.80;;;;;;;17.98;60.82;100422.25;5113801;28;20406;-58
2022/07/04 10:06:42;;;;;;;5.18;1.67;;;;;;;18.02;60.79;100423.09;5114335;28;20169;-57
2022/07/04 10:09:28;;;;;;;3.10;1.70;;;;;;;18.02;60.62;100417.84;5114035;28;20592;-58
2022/07/04 10:12:25;;;;;;;6.38;1.85;;;;;;;18.03;60.81;100409.09;5114117;28;20077;-57
2022/07/04 10:15:09;;;;;;;4.72;2.00;;;;;;;18.06;60.72;100414.31;5112953;28;20153;-58
2022/07/04 10:17:53;;;;;;;5.22;2.05;;;;;;;18.04;60.80;100413.47;5114014;28;20525;-57
2022/07/04 10:20:37;;;;;;;2.47;1.63;;;;;;;18.05;60.76;100416.09;5113904;28;20126;-57
2022/07/04 10:23:23;;;;;;;3.30;2.00;;;;;;;18.06;60.65;100409.06;5114090;28;20454;-57
2022/07/04 10:26:07;;;;;;;4.53;1.58;;;;;;;18.06;60.72;100402.06;5113303;28;20104;-57
2022/07/04 10:28:52;;;;;;;4.05;1.60;;;;;;;18.08;60.82;100402.06;5113504;28;20043;-57
2022/07/04 10:31:36;;;;;;;2.63;1.85;;;;;;;18.07;60.89;100400.31;5113045;28;20127;-58
2022/07/04 10:34:20;;;;;;;2.15;1.63;;;;;;;18.06;60.85;100395.97;5112771;28;20043;-57
2022/07/04 10:37:04;;;;;;;4.30;1.85;;;;;;;18.07;60.66;100393.31;5113858;28;20055;-57
2022/07/04 10:39:48;;;;;;;2.60;1.73;;;;;;;18.07;60.71;100395.94;5113515;28;20100;-57
2022/07/04 10:42:32;;;;;;;4.35;2.03;;;;;;;18.09;60.68;100388.06;5114062;28;20494;-57
2022/07/04 10:45:38;;;;;;;7.20;1.95;;;;;;;18.10;60.53;100387.19;5113499;28;20073;-58
2022/07/04 10:48:23;;;;;;;1.90;1.52;;;;;;;18.10;60.46;100395.91;5113544;28;20046;-58
2022/07/04 10:51:08;;;;;;;2.13;1.52;;;;;;;18.11;60.66;100397.66;5112552;28;20096;-57
2022/07/04 10:54:00;;;;;;;6.75;1.50;;;;;;;18.11;60.74;100402.91;5113497;28;20109;-57
2022/07/04 10:56:50;;;;;;;3.90;1.70;;;;;;;18.13;60.81;100399.41;5115870;28;20533;-57
2022/07/04 10:59:33;;;;;;;3.85;1.85;;;;;;;18.13;60.71;100392.41;5116715;28;20143;-57
2022/07/04 11:02:17;;;;;;;4.45;1.80;;;;;;;18.15;60.67;100393.25;5117428;28;20059;-57
2022/07/04 11:05:07;;;;;;;2.47;1.50;;;;;;;18.17;60.32;100395.88;5117038;28;20100;-57
2022/07/04 11:07:51;;;;;;;3.30;1.67;;;;;;;18.17;60.35;100388.84;5116734;28;20076;-58
2022/07/04 11:10:38;;;;;;;2.33;1.42;;;;;;;18.15;60.37;100390.63;5115770;28;20062;-58
2022/07/04 11:13:22;;;;;;;1.92;1.30;;;;;;;18.15;60.36;100390.63;5116085;28;20089;-58
2022/07/04 11:16:07;;;;;;;2.22;1.45;;;;;;;18.19;60.41;100394.09;5117762;28;20046;-58
2022/07/04 11:18:51;;;;;;;3.03;1.67;;;;;;;18.19;60.33;100388.84;5115903;28;20043;-58
2022/07/04 11:21:37;;;;;;;4.57;1.40;;;;;;;18.21;60.46;100381.84;5116554;28;20086;-59
2022/07/04 11:24:22;;;;;;;3.67;1.77;;;;;;;18.21;60.57;100382.69;5116120;28;20038;-59
2022/07/04 11:27:09;;;;;;;5.15;1.80;;;;;;;18.22;60.37;100380.94;5115895;28;20441;-58
2022/07/04 11:29:54;;;;;;;3.53;1.55;;;;;;;18.22;60.30;100378.31;5115709;28;20046;-58
2022/07/04 11:32:38;;;;;;;1.70;1.35;;;;;;;18.23;60.29;100380.06;5115769;28;20460;-58
2022/07/04 11:35:22;;;;;;;4.25;2.05;;;;;;;18.23;60.29;100383.56;5115460;28;20131;-58
2022/07/04 11:38:06;;;;;;;4.78;2.10;;;;;;;18.23;60.30;100386.19;5116524;28;20039;-58
2022/07/04 11:47:16;;;;;;;5.70;2.28;;;;;;;18.27;60.16;100371.28;5116385;28;20042;-59
2022/07/04 11:50:00;;;;;;;3.05;1.90;;;;;;;18.26;60.27;100374.78;5116204;28;20401;-59
2022/07/04 11:52:47;;;;;;;4.45;1.60;;;;;;;18.26;60.22;100366.91;5115731;28;20120;-59
2022/07/04 11:55:31;;;;;;;2.88;1.80;;;;;;;18.28;60.08;100370.38;5115485;28;20086;-59
2022/07/04 11:58:15;;;;;;;4.95;1.77;;;;;;;18.29;60.05;100369.50;5116147;28;20046;-58
2022/07/04 12:00:59;;;;;;;3.42;1.85;;;;;;;18.31;60.07;100375.59;5115671;28;20105;-58
2022/07/04 12:03:43;;;;;;;4.10;1.95;;;;;;;18.33;59.91;100367.72;5115959;28;20544;-59
2022/07/04 12:06:27;;;;;;;3.65;2.25;;;;;;;18.33;60.41;100367.72;5116316;28;20120;-59
2022/07/04 12:09:12;;;;;;;2.80;1.60;;;;;;;18.32;60.13;100371.22;5115047;28;20127;-59
2022/07/04 12:11:58;;;;;;;3.17;1.52;;;;;;;18.32;59.83;100369.47;5114857;28;20624;-59
2022/07/04 12:15:05;;;;;;;2.90;1.70;;;;;;;18.32;60.00;100368.59;5115698;28;20050;-58
2022/07/04 12:17:53;;;;;;;3.00;1.90;;;;;;;18.31;60.24;100358.97;5115520;28;20073;-57
2022/07/04 12:20:37;;;;;;;5.00;1.75;;;;;;;18.34;60.17;100364.19;5116088;28;20054;-58
2022/07/04 12:23:22;;;;;;;2.33;1.60;;;;;;;18.32;60.05;100358.97;5114742;28;20096;-57
2022/07/04 12:26:09;;;;;;;3.60;1.63;;;;;;;18.34;60.01;100361.56;5114890;28;20050;-58
2022/07/04 12:28:53;;;;;;;3.47;1.75;;;;;;;18.33;59.94;100365.97;5114618;28;20044;-57
2022/07/04 12:31:44;;;;;;;8.40;1.65;;;;;;;18.35;60.07;100363.31;5115721;28;20513;-57
2022/07/04 12:34:29;;;;;;;4.25;1.63;;;;;;;18.36;59.79;100365.06;5115729;28;20058;-59
2022/07/04 12:37:16;;;;;;;4.50;1.77;;;;;;;18.37;59.92;100366.78;5115067;28;20088;-59
2022/07/04 12:40:07;;;;;;;6.45;1.60;;;;;;;18.36;59.93;100357.19;5115333;28;20054;-59
2022/07/04 12:42:55;;;;;;;4.07;1.77;;;;;;;18.38;60.15;100351.03;5114248;28;20469;-59
2022/07/04 12:45:45;;;;;;;3.00;1.80;;;;;;;18.38;60.26;100351.03;5115385;28;20046;-59
2022/07/04 12:48:29;;;;;;;6.80;2.05;;;;;;;18.39;60.18;100349.28;5114408;28;20046;-57
2022/07/04 12:51:16;;;;;;;3.63;1.75;;;;;;;18.38;60.23;100353.66;5114850;28;20042;-57
2022/07/04 12:54:08;;;;;;;5.25;1.80;;;;;;;18.36;60.04;100347.56;5113736;28;20042;-57
2022/07/04 12:57:04;;;;;;;3.63;1.85;;;;;;;18.37;60.33;100351.06;5114959;28;20089;-57
2022/07/04 12:59:48;;;;;;;5.47;1.80;;;;;;;18.37;60.19;100351.06;5114226;28;20076;-57
2022/07/04 13:02:32;;;;;;;2.38;1.85;;;;;;;18.37;60.21;100351.91;5114980;28;20058;-57
2022/07/04 13:05:16;;;;;;;1.65;1.55;;;;;;;18.37;60.44;100346.66;5115295;28;20039;-57
2022/07/04 13:08:01;;;;;;;6.40;1.80;;;;;;;18.39;60.14;100351.91;5114050;28;20050;-57
2022/07/04 13:10:45;;;;;;;2.88;1.80;;;;;;;18.39;60.11;100344.88;5114642;28;20426;-57
2022/07/04 13:13:29;;;;;;;49.28;5.28;;;;;;;18.49;59.96;100332.53;5114824;28;20050;-61